CheckWX is a tool to help pilots better visualize weather data.  It is not intended as a substitute for an official pre-flight weather briefing.

15:05:13 UTC

GVAC METAR
Amílcar Cabral International Airport
Espargos, Cape Verde
Current

1 hour ago

GVAC 231400Z 05016KT 9999 BKN014 SCT200 26/17 Q1015 NOSIG
Observed
May-23 @ 14:00 UTC
Wind
  • 050° at 16 KTS
Visibility
10,000+ meters
Flight Rules
MVFR
Cloud Levels
  • Broken at 1,400' AGL
  • Scattered at 20,000' AGL
Temperature
26°C / 79°F
Dewpoint
17°C / 63°F
Humidity
58%
Altimeter
29.97" Hg
Pressure
1014.92 hPa
Previous

2 hours ago

GVAC 231300Z 05015KT 9999 BKN014 26/17 Q1015 NOSIG
Observed
May-23 @ 13:00 UTC
Wind
  • 050° at 15 KTS
Visibility
10,000+ meters
Flight Rules
MVFR
Cloud Levels
  • Broken at 1,400' AGL
Temperature
26°C / 79°F
Dewpoint
17°C / 63°F
Humidity
58%
Altimeter
29.97" Hg
Pressure
1014.92 hPa
Previous

3 hours ago

GVAC 231200Z 04015KT 9999 BKN014 26/17 Q1015 NOSIG
Observed
May-23 @ 12:00 UTC
Wind
  • 040° at 15 KTS
Visibility
10,000+ meters
Flight Rules
MVFR
Cloud Levels
  • Broken at 1,400' AGL
Temperature
26°C / 79°F
Dewpoint
17°C / 63°F
Humidity
58%
Altimeter
29.97" Hg
Pressure
1014.92 hPa